createdAt,value
2022-12-11T00:03:48.727Z,68.98
2022-12-11T00:08:53.490Z,68.63
2022-12-11T00:13:57.667Z,68.72
2022-12-11T00:19:00.473Z,68.85
2022-12-11T00:24:03.264Z,69.12
2022-12-11T00:29:08.294Z,68.64
2022-12-11T00:34:12.089Z,68.40
2022-12-11T00:39:14.925Z,68.29
2022-12-11T00:44:19.315Z,68.88
2022-12-11T00:49:22.098Z,68.89
2022-12-11T00:54:24.889Z,68.62
2022-12-11T00:59:29.432Z,68.76
2022-12-11T01:04:32.228Z,68.56
2022-12-11T01:09:52.305Z,68.90
2022-12-11T01:14:56.450Z,68.94
2022-12-11T01:19:59.378Z,68.70
2022-12-11T01:25:02.196Z,69.35
2022-12-11T01:30:09.338Z,69.57
2022-12-11T01:35:13.449Z,69.91
2022-12-11T01:40:18.332Z,71.00
2022-12-11T01:45:36.428Z,71.03
2022-12-11T01:50:43.182Z,71.51
2022-12-11T01:55:47.177Z,71.52
2022-12-11T02:00:53.195Z,72.27
2022-12-11T02:05:56.147Z,72.56
2022-12-11T02:11:08.052Z,72.21
2022-12-11T02:16:20.350Z,71.98
2022-12-11T02:21:27.819Z,72.37
2022-12-11T02:26:56.788Z,72.10
2022-12-11T02:32:05.970Z,72.77
2022-12-11T02:37:13.276Z,73.17
2022-12-11T02:42:17.232Z,73.04
2022-12-11T02:47:22.438Z,73.95
2022-12-11T02:52:27.259Z,73.17
2022-12-11T02:57:36.043Z,73.19
2022-12-11T03:02:42.183Z,73.59
2022-12-11T03:07:45.985Z,73.73
2022-12-11T03:12:53.757Z,73.50
2022-12-11T03:18:05.216Z,74.09
2022-12-11T03:23:21.135Z,73.63
2022-12-11T03:28:30.474Z,73.93
2022-12-11T03:33:38.642Z,74.19
2022-12-11T03:38:49.078Z,74.25
2022-12-11T03:43:55.475Z,74.07
2022-12-11T03:49:02.810Z,74.77
2022-12-11T03:54:06.739Z,74.88
2022-12-11T03:59:09.875Z,74.98
2022-12-11T04:04:14.173Z,75.51
2022-12-11T04:09:16.999Z,76.42
2022-12-11T04:14:37.089Z,76.80
2022-12-11T04:19:58.782Z,77.22
2022-12-11T04:25:01.959Z,77.66
2022-12-11T04:30:06.476Z,78.26
2022-12-11T04:35:12.536Z,78.45
2022-12-11T04:40:18.652Z,78.47
2022-12-11T04:45:21.583Z,78.98
2022-12-11T04:50:25.748Z,79.29
2022-12-11T04:55:28.481Z,79.47
2022-12-11T05:00:31.267Z,79.26
2022-12-11T05:05:35.551Z,79.19
2022-12-11T05:10:38.296Z,79.22
2022-12-11T05:15:41.395Z,79.95
2022-12-11T05:20:45.805Z,79.74
2022-12-11T05:25:53.001Z,79.85
2022-12-11T05:30:58.945Z,79.57
2022-12-11T05:36:03.223Z,79.49
2022-12-11T05:41:07.804Z,79.85
2022-12-11T05:46:14.118Z,79.64
2022-12-11T05:51:19.888Z,79.50
2022-12-11T05:56:26.221Z,79.61
2022-12-11T06:01:31.833Z,78.81
2022-12-11T06:06:36.686Z,79.38
2022-12-11T06:11:39.503Z,79.16
2022-12-11T06:16:42.417Z,79.17
2022-12-11T06:21:48.802Z,79.05
2022-12-11T06:26:51.579Z,78.99
2022-12-11T06:31:54.440Z,79.17
2022-12-11T06:36:58.755Z,78.95
2022-12-11T06:42:01.504Z,78.88
2022-12-11T06:47:05.377Z,78.78
2022-12-11T06:52:12.504Z,79.37
2022-12-11T06:57:19.277Z,78.85
2022-12-11T07:02:22.218Z,78.16
2022-12-11T07:07:26.535Z,77.74
2022-12-11T07:12:29.318Z,77.55
2022-12-11T07:17:32.642Z,75.90
2022-12-11T07:22:40.343Z,75.56
2022-12-11T07:27:46.060Z,75.17
2022-12-11T07:32:48.830Z,74.73
2022-12-11T07:37:52.965Z,73.28
2022-12-11T07:42:55.737Z,73.01
2022-12-11T07:47:59.051Z,71.84
2022-12-11T07:53:03.146Z,71.31
2022-12-11T07:58:06.001Z,72.36
2022-12-11T08:03:08.921Z,71.86
2022-12-11T08:08:13.126Z,71.05
2022-12-11T08:13:16.177Z,70.52
2022-12-11T08:18:19.092Z,71.52
2022-12-11T08:23:23.265Z,71.94
2022-12-11T08:28:27.305Z,72.34
2022-12-11T08:33:30.228Z,71.28
2022-12-11T08:38:34.657Z,72.72
2022-12-11T08:43:37.699Z,70.65
2022-12-11T08:48:42.475Z,69.41
2022-12-11T08:53:46.604Z,69.27
2022-12-11T08:58:49.378Z,70.92
2022-12-11T09:03:53.525Z,69.97
2022-12-11T09:09:00.206Z,68.88
2022-12-11T09:14:07.547Z,68.86
2022-12-11T09:19:14.536Z,68.79
2022-12-11T09:24:18.672Z,69.58
2022-12-11T09:29:21.536Z,68.61
2022-12-11T09:34:29.174Z,68.93
2022-12-11T09:39:33.749Z,68.83
2022-12-11T09:44:43.235Z,68.93
2022-12-11T09:49:48.113Z,68.10
2022-12-11T09:54:56.918Z,68.16
2022-12-11T10:00:17.336Z,68.20
2022-12-11T10:05:29.193Z,67.75
2022-12-11T10:10:41.804Z,68.25
2022-12-11T10:15:50.660Z,68.42
2022-12-11T10:20:54.913Z,68.55
2022-12-11T10:26:06.885Z,68.60
2022-12-11T10:31:18.174Z,68.74
2022-12-11T10:36:28.869Z,68.41
2022-12-11T10:41:39.886Z,68.80
2022-12-11T10:46:42.735Z,69.11
2022-12-11T10:51:45.720Z,69.79
2022-12-11T10:56:51.549Z,70.21
2022-12-11T11:01:55.079Z,70.75
2022-12-11T11:07:12.660Z,72.08
2022-12-11T11:12:22.729Z,70.96
2022-12-11T11:17:26.895Z,71.30
2022-12-11T11:22:33.568Z,70.98
2022-12-11T11:27:45.132Z,71.91
2022-12-11T11:32:48.021Z,71.88
2022-12-11T11:37:59.347Z,72.17
2022-12-11T11:43:17.369Z,72.12
2022-12-11T11:48:37.535Z,72.93
2022-12-11T11:53:41.666Z,72.96
2022-12-11T11:58:56.145Z,73.78
2022-12-11T12:03:59.624Z,74.06
2022-12-11T12:09:16.041Z,74.16
2022-12-11T12:19:58.024Z,73.64
2022-12-11T12:25:03.560Z,72.57
2022-12-11T12:30:17.387Z,72.62
2022-12-11T12:35:36.487Z,72.35
2022-12-11T12:40:49.593Z,71.80
2022-12-11T12:46:07.429Z,72.92
2022-12-11T12:51:14.833Z,72.94
2022-12-11T12:56:18.198Z,72.14
2022-12-11T13:01:23.633Z,71.61
2022-12-11T13:06:32.149Z,71.20
2022-12-11T13:11:37.038Z,70.86
2022-12-11T13:16:44.064Z,71.15
2022-12-11T13:21:57.092Z,70.79
2022-12-11T13:27:10.244Z,71.19
2022-12-11T13:32:25.528Z,71.35
2022-12-11T13:37:34.660Z,71.59
2022-12-11T13:42:45.415Z,71.53
2022-12-11T13:47:49.675Z,71.63
2022-12-11T13:52:56.142Z,71.19
2022-12-11T13:57:59.504Z,71.12
2022-12-11T14:03:08.283Z,71.34
2022-12-11T14:08:13.435Z,71.35
2022-12-11T14:13:23.333Z,71.36
2022-12-11T14:18:30.411Z,71.63
2022-12-11T14:23:34.175Z,72.12
2022-12-11T14:28:42.584Z,72.44
2022-12-11T14:33:50.284Z,72.12
2022-12-11T14:38:58.523Z,72.27
2022-12-11T14:44:05.407Z,72.43
2022-12-11T14:49:21.276Z,72.55
2022-12-11T14:54:30.534Z,72.87
2022-12-11T14:59:40.310Z,73.36
2022-12-11T15:04:45.576Z,73.37
2022-12-11T15:09:48.399Z,73.60
2022-12-11T15:14:53.043Z,73.69
2022-12-11T15:20:02.500Z,74.06
2022-12-11T15:25:06.204Z,74.27
2022-12-11T15:30:28.198Z,74.40
2022-12-11T15:35:32.696Z,74.30
2022-12-11T15:40:35.525Z,74.21
2022-12-11T15:45:38.334Z,74.93
2022-12-11T15:50:42.753Z,74.99
2022-12-11T15:55:45.848Z,75.07
2022-12-11T16:00:48.615Z,75.19
2022-12-11T16:05:53.905Z,75.03
2022-12-11T16:10:57.337Z,75.08
2022-12-11T16:16:00.198Z,75.42
2022-12-11T16:21:07.273Z,74.85
2022-12-11T16:26:10.280Z,74.69
2022-12-11T16:31:13.522Z,75.20
2022-12-11T16:36:19.692Z,75.83
2022-12-11T16:41:23.775Z,75.67
2022-12-11T16:46:26.587Z,75.93
2022-12-11T16:51:30.765Z,75.87
2022-12-11T16:56:34.017Z,75.94
2022-12-11T17:01:36.968Z,76.69
2022-12-11T17:06:41.293Z,76.66
2022-12-11T17:11:44.109Z,76.43
2022-12-11T17:16:48.109Z,75.99
2022-12-11T17:21:54.098Z,76.09
2022-12-11T17:26:56.933Z,75.66
2022-12-11T17:31:59.828Z,75.89
2022-12-11T17:37:04.014Z,75.42
2022-12-11T17:42:07.060Z,75.51
2022-12-11T17:47:11.932Z,75.15
2022-12-11T17:52:16.065Z,75.01
2022-12-11T17:57:18.984Z,74.02
2022-12-11T18:02:21.972Z,74.88
2022-12-11T18:07:26.484Z,75.01
2022-12-11T18:12:30.936Z,74.87
2022-12-11T18:17:34.358Z,74.88
2022-12-11T18:22:38.742Z,74.76
2022-12-11T18:27:42.619Z,75.05
2022-12-11T18:32:46.182Z,75.02
2022-12-11T18:37:50.320Z,74.78
2022-12-11T18:42:53.183Z,74.90
2022-12-11T18:47:56.689Z,74.95
2022-12-11T18:53:03.217Z,74.83
2022-12-11T18:58:06.370Z,75.04
2022-12-11T19:03:10.005Z,75.14
2022-12-11T19:08:16.220Z,75.11
2022-12-11T19:13:19.076Z,75.16
2022-12-11T19:18:21.910Z,74.70
2022-12-11T19:23:26.044Z,74.76
2022-12-11T19:28:28.864Z,75.03
2022-12-11T19:33:31.648Z,74.71
2022-12-11T19:38:35.866Z,74.49
2022-12-11T19:43:38.703Z,74.91
2022-12-11T19:48:41.915Z,74.73
2022-12-11T19:53:47.756Z,74.44
2022-12-11T19:58:50.904Z,74.36
2022-12-11T20:03:54.290Z,74.58
2022-12-11T20:08:59.378Z,74.59
2022-12-11T20:14:02.206Z,74.75
2022-12-11T20:19:05.448Z,74.35
2022-12-11T20:24:10.341Z,74.66
2022-12-11T20:29:13.539Z,74.38
2022-12-11T20:34:16.464Z,74.37
2022-12-11T20:39:20.641Z,74.23
2022-12-11T20:44:23.472Z,74.56
2022-12-11T20:49:26.249Z,75.07
2022-12-11T20:54:30.445Z,75.13
2022-12-11T20:59:33.346Z,74.74
2022-12-11T21:04:39.722Z,74.99
2022-12-11T21:09:43.987Z,75.22
2022-12-11T21:14:46.747Z,75.25
2022-12-11T21:19:50.430Z,75.60
2022-12-11T21:24:54.521Z,75.28
2022-12-11T21:29:57.428Z,75.20
2022-12-11T21:35:00.182Z,75.10
2022-12-11T21:40:04.947Z,75.13
2022-12-11T21:50:31.527Z,74.98
2022-12-11T21:55:35.632Z,75.09
2022-12-11T22:00:38.941Z,74.92
2022-12-11T22:05:41.730Z,74.83
2022-12-11T22:10:45.911Z,74.89
2022-12-11T22:15:48.665Z,74.63
2022-12-11T22:20:51.571Z,74.25
2022-12-11T22:25:56.331Z,74.41
2022-12-11T22:30:59.359Z,74.24
2022-12-11T22:36:02.838Z,74.36
2022-12-11T22:41:12.925Z,73.93
2022-12-11T22:46:17.477Z,74.09
2022-12-11T22:51:20.438Z,73.75
2022-12-11T22:56:24.565Z,73.82
2022-12-11T23:01:28.972Z,74.01
2022-12-11T23:06:31.788Z,73.91
2022-12-11T23:11:38.376Z,74.19
2022-12-11T23:16:41.788Z,74.44
2022-12-11T23:21:44.829Z,74.43
2022-12-11T23:26:49.093Z,74.58
2022-12-11T23:31:51.832Z,74.65
2022-12-11T23:36:54.672Z,74.43
2022-12-11T23:41:59.013Z,74.23
2022-12-11T23:47:01.869Z,74.05
2022-12-11T23:52:04.743Z,73.98
2022-12-11T23:57:08.857Z,73.99
